sensor_id;sensor_type;location;lat;lon;timestamp;P1;durP1;ratioP1;P2;durP2;ratioP2
40541;SDS011;49288;52.194;5.676;2022-12-07T00:00:09;11.02;;;5.32;;
40541;SDS011;49288;52.194;5.676;2022-12-07T00:05:12;9.30;;;5.05;;
40541;SDS011;49288;52.194;5.676;2022-12-07T00:10:15;9.57;;;5.47;;
40541;SDS011;49288;52.194;5.676;2022-12-07T00:15:17;10.02;;;5.65;;
40541;SDS011;49288;52.194;5.676;2022-12-07T00:20:20;9.23;;;4.97;;
40541;SDS011;49288;52.194;5.676;2022-12-07T00:25:23;10.65;;;6.18;;
40541;SDS011;49288;52.194;5.676;2022-12-07T00:30:25;11.05;;;5.95;;
40541;SDS011;49288;52.194;5.676;2022-12-07T00:35:28;13.48;;;6.35;;
40541;SDS011;49288;52.194;5.676;2022-12-07T00:40:31;9.27;;;5.32;;
40541;SDS011;49288;52.194;5.676;2022-12-07T00:45:34;10.90;;;5.78;;
40541;SDS011;49288;52.194;5.676;2022-12-07T00:50:36;10.90;;;5.57;;
40541;SDS011;49288;52.194;5.676;2022-12-07T00:55:39;8.50;;;5.10;;
40541;SDS011;49288;52.194;5.676;2022-12-07T01:00:42;10.10;;;6.10;;
40541;SDS011;49288;52.194;5.676;2022-12-07T01:05:52;8.88;;;5.03;;
40541;SDS011;49288;52.194;5.676;2022-12-07T01:10:57;10.50;;;5.45;;
40541;SDS011;49288;52.194;5.676;2022-12-07T01:16:03;13.50;;;6.38;;
40541;SDS011;49288;52.194;5.676;2022-12-07T01:21:14;11.38;;;5.80;;
40541;SDS011;49288;52.194;5.676;2022-12-07T01:26:22;12.15;;;6.22;;
40541;SDS011;49288;52.194;5.676;2022-12-07T01:31:25;13.35;;;5.47;;
40541;SDS011;49288;52.194;5.676;2022-12-07T01:36:30;11.60;;;6.65;;
40541;SDS011;49288;52.194;5.676;2022-12-07T01:46:38;11.43;;;5.50;;
40541;SDS011;49288;52.194;5.676;2022-12-07T01:51:41;10.88;;;5.65;;
40541;SDS011;49288;52.194;5.676;2022-12-07T01:56:46;14.23;;;6.78;;
40541;SDS011;49288;52.194;5.676;2022-12-07T02:01:53;15.63;;;6.35;;
40541;SDS011;49288;52.194;5.676;2022-12-07T02:06:56;14.90;;;5.97;;
40541;SDS011;49288;52.194;5.676;2022-12-07T02:11:59;10.05;;;6.25;;
40541;SDS011;49288;52.194;5.676;2022-12-07T02:33:13;9.35;;;5.30;;
40541;SDS011;49288;52.194;5.676;2022-12-07T02:43:36;19.27;;;6.68;;
40541;SDS011;49288;52.194;5.676;2022-12-07T02:48:42;13.57;;;7.20;;
40541;SDS011;49288;52.194;5.676;2022-12-07T02:53:47;12.05;;;6.45;;
40541;SDS011;49288;52.194;5.676;2022-12-07T03:10:01;12.60;;;6.50;;
40541;SDS011;49288;52.194;5.676;2022-12-07T03:15:29;14.30;;;5.93;;
40541;SDS011;49288;52.194;5.676;2022-12-07T03:20:53;10.75;;;5.88;;
40541;SDS011;49288;52.194;5.676;2022-12-07T03:25:58;14.13;;;5.90;;
40541;SDS011;49288;52.194;5.676;2022-12-07T03:31:25;10.93;;;6.57;;
40541;SDS011;49288;52.194;5.676;2022-12-07T03:37:18;10.15;;;4.35;;
40541;SDS011;49288;52.194;5.676;2022-12-07T03:41:57;10.07;;;5.60;;
40541;SDS011;49288;52.194;5.676;2022-12-07T03:47:07;8.98;;;4.95;;
40541;SDS011;49288;52.194;5.676;2022-12-07T03:52:18;14.13;;;5.32;;
40541;SDS011;49288;52.194;5.676;2022-12-07T03:57:26;11.55;;;4.80;;
40541;SDS011;49288;52.194;5.676;2022-12-07T04:02:30;11.00;;;5.93;;
40541;SDS011;49288;52.194;5.676;2022-12-07T04:07:33;10.70;;;6.15;;
40541;SDS011;49288;52.194;5.676;2022-12-07T04:12:35;16.73;;;6.97;;
40541;SDS011;49288;52.194;5.676;2022-12-07T04:22:43;10.68;;;5.55;;
40541;SDS011;49288;52.194;5.676;2022-12-07T04:27:45;13.82;;;6.07;;
40541;SDS011;49288;52.194;5.676;2022-12-07T04:32:48;12.82;;;6.00;;
40541;SDS011;49288;52.194;5.676;2022-12-07T04:37:50;12.27;;;5.97;;
40541;SDS011;49288;52.194;5.676;2022-12-07T04:42:53;10.48;;;5.80;;
40541;SDS011;49288;52.194;5.676;2022-12-07T04:47:56;10.52;;;4.97;;
40541;SDS011;49288;52.194;5.676;2022-12-07T04:52:59;16.60;;;5.07;;
40541;SDS011;49288;52.194;5.676;2022-12-07T04:58:01;15.00;;;5.38;;
40541;SDS011;49288;52.194;5.676;2022-12-07T05:03:04;8.23;;;4.60;;
40541;SDS011;49288;52.194;5.676;2022-12-07T05:08:07;13.68;;;4.22;;
40541;SDS011;49288;52.194;5.676;2022-12-07T05:13:09;7.47;;;4.15;;
40541;SDS011;49288;52.194;5.676;2022-12-07T05:18:15;10.75;;;4.82;;
40541;SDS011;49288;52.194;5.676;2022-12-07T05:23:18;12.35;;;4.75;;
40541;SDS011;49288;52.194;5.676;2022-12-07T05:28:21;11.32;;;4.70;;
40541;SDS011;49288;52.194;5.676;2022-12-07T05:33:23;17.95;;;5.05;;
40541;SDS011;49288;52.194;5.676;2022-12-07T05:38:26;8.40;;;4.28;;
40541;SDS011;49288;52.194;5.676;2022-12-07T05:43:29;15.88;;;4.20;;
40541;SDS011;49288;52.194;5.676;2022-12-07T05:48:32;8.32;;;3.80;;
40541;SDS011;49288;52.194;5.676;2022-12-07T05:53:35;12.55;;;4.15;;
40541;SDS011;49288;52.194;5.676;2022-12-07T05:58:38;8.55;;;4.00;;
40541;SDS011;49288;52.194;5.676;2022-12-07T06:03:59;10.65;;;3.55;;
40541;SDS011;49288;52.194;5.676;2022-12-07T06:09:02;19.20;;;3.75;;
40541;SDS011;49288;52.194;5.676;2022-12-07T06:14:06;6.35;;;3.65;;
40541;SDS011;49288;52.194;5.676;2022-12-07T06:19:09;10.07;;;4.13;;
40541;SDS011;49288;52.194;5.676;2022-12-07T06:24:12;7.65;;;3.85;;
40541;SDS011;49288;52.194;5.676;2022-12-07T06:29:16;7.07;;;3.83;;
40541;SDS011;49288;52.194;5.676;2022-12-07T06:34:19;11.63;;;4.07;;
40541;SDS011;49288;52.194;5.676;2022-12-07T06:39:25;7.18;;;3.53;;
40541;SDS011;49288;52.194;5.676;2022-12-07T06:44:28;9.10;;;3.53;;
40541;SDS011;49288;52.194;5.676;2022-12-07T06:49:31;8.30;;;3.28;;
40541;SDS011;49288;52.194;5.676;2022-12-07T06:54:34;10.55;;;4.00;;
40541;SDS011;49288;52.194;5.676;2022-12-07T06:59:36;9.88;;;3.42;;
40541;SDS011;49288;52.194;5.676;2022-12-07T07:04:39;10.18;;;3.67;;
40541;SDS011;49288;52.194;5.676;2022-12-07T07:09:42;9.77;;;3.45;;
40541;SDS011;49288;52.194;5.676;2022-12-07T07:14:45;11.80;;;4.03;;
40541;SDS011;49288;52.194;5.676;2022-12-07T07:19:47;9.13;;;3.42;;
40541;SDS011;49288;52.194;5.676;2022-12-07T07:24:50;4.93;;;2.60;;
40541;SDS011;49288;52.194;5.676;2022-12-07T07:29:53;16.33;;;3.65;;
40541;SDS011;49288;52.194;5.676;2022-12-07T07:34:55;7.63;;;3.10;;
40541;SDS011;49288;52.194;5.676;2022-12-07T07:39:58;14.85;;;3.40;;
40541;SDS011;49288;52.194;5.676;2022-12-07T07:45:04;7.43;;;3.75;;
40541;SDS011;49288;52.194;5.676;2022-12-07T07:50:07;15.63;;;4.60;;
40541;SDS011;49288;52.194;5.676;2022-12-07T07:55:10;17.98;;;5.57;;
40541;SDS011;49288;52.194;5.676;2022-12-07T08:00:14;13.27;;;6.38;;
40541;SDS011;49288;52.194;5.676;2022-12-07T08:05:17;15.70;;;6.77;;
40541;SDS011;49288;52.194;5.676;2022-12-07T08:10:20;20.00;;;8.15;;
40541;SDS011;49288;52.194;5.676;2022-12-07T08:15:22;16.73;;;7.20;;
40541;SDS011;49288;52.194;5.676;2022-12-07T08:20:26;26.75;;;8.68;;
40541;SDS011;49288;52.194;5.676;2022-12-07T08:25:28;24.27;;;7.97;;
40541;SDS011;49288;52.194;5.676;2022-12-07T08:30:31;16.88;;;6.28;;
40541;SDS011;49288;52.194;5.676;2022-12-07T08:35:34;19.10;;;7.13;;
40541;SDS011;49288;52.194;5.676;2022-12-07T08:40:37;14.80;;;7.03;;
40541;SDS011;49288;52.194;5.676;2022-12-07T08:45:40;22.35;;;8.15;;
40541;SDS011;49288;52.194;5.676;2022-12-07T08:50:43;15.40;;;7.60;;
40541;SDS011;49288;52.194;5.676;2022-12-07T08:55:51;26.65;;;9.65;;
40541;SDS011;49288;52.194;5.676;2022-12-07T09:00:53;34.05;;;9.95;;
40541;SDS011;49288;52.194;5.676;2022-12-07T09:05:57;23.73;;;8.82;;
40541;SDS011;49288;52.194;5.676;2022-12-07T09:11:00;30.58;;;8.38;;
40541;SDS011;49288;52.194;5.676;2022-12-07T09:16:03;34.58;;;8.52;;
40541;SDS011;49288;52.194;5.676;2022-12-07T09:21:07;24.42;;;8.60;;
40541;SDS011;49288;52.194;5.676;2022-12-07T09:26:09;18.90;;;8.82;;
40541;SDS011;49288;52.194;5.676;2022-12-07T09:31:12;24.20;;;8.85;;
40541;SDS011;49288;52.194;5.676;2022-12-07T09:36:25;31.42;;;9.57;;
40541;SDS011;49288;52.194;5.676;2022-12-07T09:41:29;32.25;;;10.73;;
40541;SDS011;49288;52.194;5.676;2022-12-07T09:46:36;38.63;;;12.60;;
40541;SDS011;49288;52.194;5.676;2022-12-07T09:51:42;52.95;;;15.50;;
40541;SDS011;49288;52.194;5.676;2022-12-07T09:56:44;64.30;;;17.77;;
40541;SDS011;49288;52.194;5.676;2022-12-07T10:01:48;49.42;;;16.17;;
40541;SDS011;49288;52.194;5.676;2022-12-07T10:06:51;66.37;;;17.03;;
40541;SDS011;49288;52.194;5.676;2022-12-07T10:11:59;57.88;;;15.45;;
40541;SDS011;49288;52.194;5.676;2022-12-07T10:17:22;57.20;;;13.75;;
40541;SDS011;49288;52.194;5.676;2022-12-07T10:22:38;52.60;;;13.48;;
40541;SDS011;49288;52.194;5.676;2022-12-07T10:27:42;51.50;;;12.68;;
40541;SDS011;49288;52.194;5.676;2022-12-07T10:32:44;43.95;;;12.77;;
40541;SDS011;49288;52.194;5.676;2022-12-07T10:37:47;53.63;;;12.27;;
40541;SDS011;49288;52.194;5.676;2022-12-07T10:48:20;40.20;;;12.23;;
40541;SDS011;49288;52.194;5.676;2022-12-07T10:58:49;59.15;;;13.18;;
40541;SDS011;49288;52.194;5.676;2022-12-07T11:09:28;62.90;;;12.90;;
40541;SDS011;49288;52.194;5.676;2022-12-07T11:15:08;49.15;;;12.50;;
40541;SDS011;49288;52.194;5.676;2022-12-07T11:25:42;42.25;;;11.35;;
40541;SDS011;49288;52.194;5.676;2022-12-07T11:31:03;38.17;;;9.60;;
40541;SDS011;49288;52.194;5.676;2022-12-07T11:41:37;40.17;;;11.20;;
40541;SDS011;49288;52.194;5.676;2022-12-07T11:46:47;37.95;;;9.88;;
40541;SDS011;49288;52.194;5.676;2022-12-07T11:51:53;36.20;;;7.70;;
40541;SDS011;49288;52.194;5.676;2022-12-07T11:56:59;29.50;;;7.63;;
40541;SDS011;49288;52.194;5.676;2022-12-07T12:02:16;28.80;;;7.65;;
40541;SDS011;49288;52.194;5.676;2022-12-07T12:07:26;28.90;;;6.88;;
40541;SDS011;49288;52.194;5.676;2022-12-07T12:31:39;18.65;;;6.15;;
40541;SDS011;49288;52.194;5.676;2022-12-07T13:03:16;24.40;;;4.13;;
40541;SDS011;49288;52.194;5.676;2022-12-07T13:28:38;23.98;;;3.92;;
40541;SDS011;49288;52.194;5.676;2022-12-07T13:40:41;12.00;;;3.35;;
40541;SDS011;49288;52.194;5.676;2022-12-07T13:45:44;13.52;;;3.42;;
40541;SDS011;49288;52.194;5.676;2022-12-07T13:50:53;9.10;;;2.83;;
40541;SDS011;49288;52.194;5.676;2022-12-07T13:55:57;12.65;;;3.55;;
40541;SDS011;49288;52.194;5.676;2022-12-07T14:01:00;13.75;;;3.85;;
40541;SDS011;49288;52.194;5.676;2022-12-07T14:11:39;14.68;;;3.90;;
40541;SDS011;49288;52.194;5.676;2022-12-07T14:16:42;13.13;;;4.18;;
40541;SDS011;49288;52.194;5.676;2022-12-07T14:21:45;11.82;;;3.30;;
40541;SDS011;49288;52.194;5.676;2022-12-07T14:26:48;14.73;;;3.88;;
40541;SDS011;49288;52.194;5.676;2022-12-07T14:31:52;12.50;;;2.70;;
40541;SDS011;49288;52.194;5.676;2022-12-07T14:36:57;11.00;;;2.43;;
40541;SDS011;49288;52.194;5.676;2022-12-07T14:41:59;7.32;;;2.13;;
40541;SDS011;49288;52.194;5.676;2022-12-07T14:47:03;4.93;;;2.03;;
40541;SDS011;49288;52.194;5.676;2022-12-07T14:52:29;9.75;;;2.35;;
40541;SDS011;49288;52.194;5.676;2022-12-07T14:57:53;8.55;;;2.20;;
40541;SDS011;49288;52.194;5.676;2022-12-07T15:02:57;5.32;;;2.35;;
40541;SDS011;49288;52.194;5.676;2022-12-07T15:08:00;7.32;;;2.38;;
40541;SDS011;49288;52.194;5.676;2022-12-07T15:13:03;11.20;;;3.83;;
40541;SDS011;49288;52.194;5.676;2022-12-07T15:18:24;8.27;;;4.03;;
40541;SDS011;49288;52.194;5.676;2022-12-07T15:23:27;6.72;;;3.97;;
40541;SDS011;49288;52.194;5.676;2022-12-07T15:28:29;12.27;;;3.53;;
40541;SDS011;49288;52.194;5.676;2022-12-07T15:33:32;8.82;;;3.45;;
40541;SDS011;49288;52.194;5.676;2022-12-07T15:38:35;13.73;;;3.80;;
40541;SDS011;49288;52.194;5.676;2022-12-07T15:43:57;11.13;;;4.55;;
40541;SDS011;49288;52.194;5.676;2022-12-07T15:49:19;9.25;;;3.60;;
40541;SDS011;49288;52.194;5.676;2022-12-07T15:54:25;9.18;;;3.17;;
40541;SDS011;49288;52.194;5.676;2022-12-07T15:59:29;7.85;;;3.20;;
40541;SDS011;49288;52.194;5.676;2022-12-07T16:04:31;9.52;;;3.30;;
40541;SDS011;49288;52.194;5.676;2022-12-07T16:09:37;7.38;;;3.00;;
40541;SDS011;49288;52.194;5.676;2022-12-07T16:14:40;4.95;;;1.90;;
40541;SDS011;49288;52.194;5.676;2022-12-07T16:19:43;5.18;;;2.47;;
40541;SDS011;49288;52.194;5.676;2022-12-07T16:24:46;6.63;;;2.38;;
40541;SDS011;49288;52.194;5.676;2022-12-07T16:29:49;5.05;;;2.47;;
40541;SDS011;49288;52.194;5.676;2022-12-07T16:34:51;9.05;;;2.70;;
40541;SDS011;49288;52.194;5.676;2022-12-07T16:39:54;6.65;;;2.92;;
40541;SDS011;49288;52.194;5.676;2022-12-07T16:44:57;8.95;;;2.60;;
40541;SDS011;49288;52.194;5.676;2022-12-07T16:50:00;4.55;;;2.40;;
40541;SDS011;49288;52.194;5.676;2022-12-07T16:55:05;6.82;;;2.53;;
40541;SDS011;49288;52.194;5.676;2022-12-07T17:00:08;8.65;;;2.55;;
40541;SDS011;49288;52.194;5.676;2022-12-07T17:05:12;6.82;;;2.30;;
40541;SDS011;49288;52.194;5.676;2022-12-07T17:10:14;6.78;;;2.72;;
40541;SDS011;49288;52.194;5.676;2022-12-07T17:15:19;4.95;;;2.75;;
40541;SDS011;49288;52.194;5.676;2022-12-07T17:20:25;8.88;;;4.90;;
40541;SDS011;49288;52.194;5.676;2022-12-07T17:25:28;9.40;;;3.53;;
40541;SDS011;49288;52.194;5.676;2022-12-07T17:30:32;15.35;;;5.57;;
40541;SDS011;49288;52.194;5.676;2022-12-07T17:35:35;12.35;;;5.00;;
40541;SDS011;49288;52.194;5.676;2022-12-07T17:40:38;11.90;;;5.60;;
40541;SDS011;49288;52.194;5.676;2022-12-07T17:45:41;12.10;;;5.60;;
40541;SDS011;49288;52.194;5.676;2022-12-07T17:50:47;21.15;;;6.47;;
40541;SDS011;49288;52.194;5.676;2022-12-07T17:56:09;21.63;;;9.82;;
40541;SDS011;49288;52.194;5.676;2022-12-07T18:01:29;13.10;;;6.75;;
40541;SDS011;49288;52.194;5.676;2022-12-07T18:06:36;20.98;;;10.88;;
40541;SDS011;49288;52.194;5.676;2022-12-07T18:11:40;14.38;;;6.57;;
40541;SDS011;49288;52.194;5.676;2022-12-07T18:17:03;15.35;;;7.03;;
40541;SDS011;49288;52.194;5.676;2022-12-07T18:22:07;13.43;;;6.13;;
40541;SDS011;49288;52.194;5.676;2022-12-07T18:27:10;12.07;;;5.70;;
40541;SDS011;49288;52.194;5.676;2022-12-07T18:32:14;10.88;;;4.57;;
40541;SDS011;49288;52.194;5.676;2022-12-07T18:37:16;17.73;;;6.03;;
40541;SDS011;49288;52.194;5.676;2022-12-07T18:42:19;16.08;;;7.65;;
40541;SDS011;49288;52.194;5.676;2022-12-07T18:47:22;17.20;;;7.43;;
40541;SDS011;49288;52.194;5.676;2022-12-07T18:52:26;19.17;;;7.65;;
40541;SDS011;49288;52.194;5.676;2022-12-07T18:57:31;18.02;;;7.05;;
40541;SDS011;49288;52.194;5.676;2022-12-07T19:02:53;20.52;;;6.35;;
40541;SDS011;49288;52.194;5.676;2022-12-07T19:07:57;8.70;;;5.00;;
40541;SDS011;49288;52.194;5.676;2022-12-07T19:13:00;11.15;;;5.32;;
40541;SDS011;49288;52.194;5.676;2022-12-07T19:18:04;14.53;;;6.53;;
40541;SDS011;49288;52.194;5.676;2022-12-07T19:23:07;15.57;;;5.22;;
40541;SDS011;49288;52.194;5.676;2022-12-07T19:28:11;13.35;;;4.93;;
40541;SDS011;49288;52.194;5.676;2022-12-07T19:33:16;11.27;;;4.13;;
40541;SDS011;49288;52.194;5.676;2022-12-07T19:38:21;12.07;;;3.30;;
40541;SDS011;49288;52.194;5.676;2022-12-07T19:43:37;10.48;;;3.38;;
40541;SDS011;49288;52.194;5.676;2022-12-07T19:48:40;10.48;;;3.50;;
40541;SDS011;49288;52.194;5.676;2022-12-07T19:53:43;8.63;;;3.95;;
40541;SDS011;49288;52.194;5.676;2022-12-07T19:58:45;13.38;;;4.95;;
40541;SDS011;49288;52.194;5.676;2022-12-07T20:03:48;13.50;;;5.28;;
40541;SDS011;49288;52.194;5.676;2022-12-07T20:08:51;16.13;;;7.00;;
40541;SDS011;49288;52.194;5.676;2022-12-07T20:13:54;14.55;;;5.68;;
40541;SDS011;49288;52.194;5.676;2022-12-07T20:18:58;8.48;;;4.00;;
40541;SDS011;49288;52.194;5.676;2022-12-07T20:24:02;14.35;;;5.82;;
40541;SDS011;49288;52.194;5.676;2022-12-07T20:29:25;14.40;;;6.50;;
40541;SDS011;49288;52.194;5.676;2022-12-07T20:34:29;17.90;;;7.22;;
40541;SDS011;49288;52.194;5.676;2022-12-07T20:39:32;19.80;;;7.68;;
40541;SDS011;49288;52.194;5.676;2022-12-07T20:44:35;22.30;;;6.70;;
40541;SDS011;49288;52.194;5.676;2022-12-07T20:49:38;18.45;;;7.32;;
40541;SDS011;49288;52.194;5.676;2022-12-07T20:54:41;16.52;;;8.00;;
40541;SDS011;49288;52.194;5.676;2022-12-07T20:59:45;12.68;;;6.32;;
40541;SDS011;49288;52.194;5.676;2022-12-07T21:04:47;13.52;;;6.68;;
40541;SDS011;49288;52.194;5.676;2022-12-07T21:09:50;24.83;;;9.40;;
40541;SDS011;49288;52.194;5.676;2022-12-07T21:14:54;18.92;;;8.02;;
40541;SDS011;49288;52.194;5.676;2022-12-07T21:19:56;15.52;;;7.32;;
40541;SDS011;49288;52.194;5.676;2022-12-07T21:25:02;17.45;;;8.00;;
40541;SDS011;49288;52.194;5.676;2022-12-07T21:30:06;17.88;;;8.15;;
40541;SDS011;49288;52.194;5.676;2022-12-07T21:35:10;26.63;;;11.10;;
40541;SDS011;49288;52.194;5.676;2022-12-07T21:40:12;26.42;;;10.68;;
40541;SDS011;49288;52.194;5.676;2022-12-07T21:45:18;20.02;;;9.35;;
40541;SDS011;49288;52.194;5.676;2022-12-07T21:50:20;17.35;;;6.97;;
40541;SDS011;49288;52.194;5.676;2022-12-07T21:55:23;17.02;;;8.80;;
40541;SDS011;49288;52.194;5.676;2022-12-07T22:00:25;23.38;;;9.35;;
40541;SDS011;49288;52.194;5.676;2022-12-07T22:05:29;17.58;;;7.97;;
40541;SDS011;49288;52.194;5.676;2022-12-07T22:10:31;21.60;;;8.55;;
40541;SDS011;49288;52.194;5.676;2022-12-07T22:15:35;13.85;;;6.50;;
40541;SDS011;49288;52.194;5.676;2022-12-07T22:20:42;21.30;;;8.88;;
40541;SDS011;49288;52.194;5.676;2022-12-07T22:25:46;18.15;;;7.57;;
40541;SDS011;49288;52.194;5.676;2022-12-07T22:30:49;16.25;;;7.97;;
40541;SDS011;49288;52.194;5.676;2022-12-07T22:35:52;11.55;;;6.22;;
40541;SDS011;49288;52.194;5.676;2022-12-07T22:40:55;12.38;;;5.65;;
40541;SDS011;49288;52.194;5.676;2022-12-07T22:45:59;15.93;;;7.43;;
40541;SDS011;49288;52.194;5.676;2022-12-07T22:51:02;23.10;;;7.60;;
40541;SDS011;49288;52.194;5.676;2022-12-07T22:56:05;18.60;;;7.13;;
40541;SDS011;49288;52.194;5.676;2022-12-07T23:01:09;20.08;;;7.93;;
40541;SDS011;49288;52.194;5.676;2022-12-07T23:06:14;12.52;;;6.15;;
40541;SDS011;49288;52.194;5.676;2022-12-07T23:11:25;13.65;;;5.88;;
40541;SDS011;49288;52.194;5.676;2022-12-07T23:16:49;14.75;;;6.20;;
40541;SDS011;49288;52.194;5.676;2022-12-07T23:21:52;16.65;;;6.95;;
40541;SDS011;49288;52.194;5.676;2022-12-07T23:26:55;10.18;;;5.30;;
40541;SDS011;49288;52.194;5.676;2022-12-07T23:31:57;9.80;;;5.28;;
40541;SDS011;49288;52.194;5.676;2022-12-07T23:37:00;13.43;;;5.10;;
40541;SDS011;49288;52.194;5.676;2022-12-07T23:42:03;10.75;;;4.90;;
40541;SDS011;49288;52.194;5.676;2022-12-07T23:47:06;13.60;;;5.68;;
40541;SDS011;49288;52.194;5.676;2022-12-07T23:52:09;11.70;;;5.93;;
40541;SDS011;49288;52.194;5.676;2022-12-07T23:57:11;20.35;;;6.10;;
